createdAt,value
2022-08-31T00:04:24.748Z,4.10
2022-08-31T00:09:31.496Z,3.25
2022-08-31T00:14:36.396Z,4.47
2022-08-31T00:19:38.915Z,4.72
2022-08-31T00:24:42.915Z,4.57
2022-08-31T00:29:45.290Z,5.70
2022-08-31T00:34:47.896Z,3.90
2022-08-31T00:39:53.165Z,6.47
2022-08-31T00:44:55.681Z,6.07
2022-08-31T00:49:58.599Z,5.80
2022-08-31T00:55:05.077Z,3.50
2022-08-31T01:00:09.269Z,5.97
2022-08-31T01:05:12.846Z,4.35
2022-08-31T01:10:17.121Z,4.43
2022-08-31T01:15:19.596Z,3.25
2022-08-31T01:20:25.155Z,4.15
2022-08-31T01:25:33.642Z,4.63
2022-08-31T01:30:37.321Z,3.30
2022-08-31T01:35:40.730Z,3.92
2022-08-31T01:40:47.450Z,5.15
2022-08-31T01:45:50.313Z,3.03
2022-08-31T01:50:52.883Z,6.95
2022-08-31T01:55:56.806Z,3.80
2022-08-31T02:01:00.424Z,4.90
2022-08-31T02:06:06.794Z,5.20
2022-08-31T02:11:10.868Z,4.82
2022-08-31T02:16:13.333Z,3.42
2022-08-31T02:21:16.119Z,6.03
2022-08-31T02:26:20.849Z,6.45
2022-08-31T02:31:23.492Z,9.10
2022-08-31T02:36:26.696Z,10.13
2022-08-31T02:41:30.670Z,3.63
2022-08-31T02:46:33.578Z,5.75
2022-08-31T02:51:39.146Z,6.55
2022-08-31T02:56:43.461Z,4.72
2022-08-31T03:01:46.093Z,8.63
2022-08-31T03:06:48.527Z,4.95
2022-08-31T03:11:52.538Z,5.82
2022-08-31T03:16:54.959Z,5.45
2022-08-31T03:21:57.768Z,6.28
2022-08-31T03:27:02.311Z,6.07
2022-08-31T03:32:05.182Z,7.45
2022-08-31T03:37:07.954Z,9.82
2022-08-31T03:42:11.767Z,6.72
2022-08-31T03:47:14.874Z,3.25
2022-08-31T03:52:17.676Z,5.28
2022-08-31T03:57:21.672Z,4.18
2022-08-31T04:02:24.572Z,5.03
2022-08-31T04:07:27.200Z,4.75
2022-08-31T04:12:33.682Z,7.95
2022-08-31T04:17:36.370Z,8.95
2022-08-31T04:22:38.833Z,8.18
2022-08-31T04:27:43.061Z,6.45
2022-08-31T04:32:45.465Z,4.38
2022-08-31T04:37:48.003Z,5.03
2022-08-31T04:42:52.055Z,4.95
2022-08-31T04:47:54.544Z,5.88
2022-08-31T04:53:03.461Z,7.30
2022-08-31T04:58:08.436Z,4.38
2022-08-31T05:03:10.986Z,7.43
2022-08-31T05:08:13.642Z,7.25
2022-08-31T05:13:18.044Z,7.40
2022-08-31T05:18:20.628Z,5.93
2022-08-31T05:23:23.137Z,4.35
2022-08-31T05:28:27.301Z,6.63
2022-08-31T05:33:30.161Z,5.07
2022-08-31T05:38:33.461Z,4.75
2022-08-31T05:43:40.921Z,5.45
2022-08-31T05:48:49.540Z,4.03
2022-08-31T05:53:52.505Z,2.67
2022-08-31T05:58:56.878Z,3.05
2022-08-31T06:03:59.488Z,5.18
2022-08-31T06:09:02.067Z,2.10
2022-08-31T06:14:06.550Z,4.97
2022-08-31T06:19:09.196Z,4.15
2022-08-31T06:24:13.149Z,4.03
2022-08-31T06:29:17.246Z,5.95
2022-08-31T06:34:21.286Z,2.85
2022-08-31T06:39:24.265Z,3.15
2022-08-31T06:44:30.222Z,2.83
2022-08-31T06:49:33.565Z,3.25
2022-08-31T06:54:38.848Z,2.58
2022-08-31T06:59:43.318Z,3.97
2022-08-31T07:04:47.047Z,2.95
2022-08-31T07:09:50.463Z,1.67
2022-08-31T07:14:56.544Z,4.53
2022-08-31T07:20:00.024Z,2.80
2022-08-31T07:25:03.752Z,2.80
2022-08-31T07:30:15.299Z,1.42
2022-08-31T07:35:18.907Z,2.45
2022-08-31T07:40:41.224Z,2.30
2022-08-31T07:45:45.945Z,1.73
2022-08-31T07:50:48.754Z,2.15
2022-08-31T07:55:52.887Z,2.17
2022-08-31T08:01:03.514Z,1.65
2022-08-31T08:06:13.167Z,3.15
2022-08-31T08:11:16.942Z,1.50
2022-08-31T08:16:21.132Z,3.13
2022-08-31T08:21:24.141Z,1.98
2022-08-31T08:26:26.893Z,1.60
2022-08-31T08:31:30.986Z,1.52
2022-08-31T08:36:36.061Z,2.30
2022-08-31T08:41:40.333Z,3.60
2022-08-31T08:46:48.352Z,3.88
2022-08-31T08:51:53.162Z,1.33
2022-08-31T08:56:58.176Z,2.22
2022-08-31T09:02:05.252Z,1.83
2022-08-31T09:07:12.702Z,2.67
2022-08-31T09:12:24.434Z,1.13
2022-08-31T09:17:35.330Z,0.57
2022-08-31T09:22:47.362Z,1.73
2022-08-31T09:27:57.814Z,2.20
2022-08-31T09:33:02.250Z,1.90
2022-08-31T09:38:10.232Z,1.38
2022-08-31T09:43:17.696Z,1.40
2022-08-31T09:48:40.135Z,1.88
2022-08-31T09:54:01.633Z,2.40
2022-08-31T09:59:06.134Z,2.00
2022-08-31T10:04:18.305Z,2.58
2022-08-31T10:09:24.118Z,3.90
2022-08-31T10:14:31.940Z,1.40
2022-08-31T10:19:51.961Z,1.38
2022-08-31T10:25:05.144Z,2.60
2022-08-31T10:30:10.908Z,1.25
2022-08-31T10:35:19.793Z,2.42
2022-08-31T10:40:26.113Z,1.38
2022-08-31T10:45:30.320Z,0.93
2022-08-31T10:50:39.427Z,0.70
2022-08-31T10:55:49.045Z,0.98
2022-08-31T11:00:53.260Z,3.03
2022-08-31T11:05:59.507Z,3.30
2022-08-31T11:11:06.183Z,1.85
2022-08-31T11:16:18.155Z,1.50
2022-08-31T11:21:38.528Z,2.40
2022-08-31T11:26:53.326Z,1.47
2022-08-31T11:31:57.587Z,1.02
2022-08-31T11:37:05.250Z,3.00
2022-08-31T11:42:33.583Z,0.95
2022-08-31T11:47:37.473Z,3.03
2022-08-31T11:52:43.579Z,2.50
2022-08-31T11:58:10.212Z,1.73
2022-08-31T12:03:31.772Z,2.35
2022-08-31T12:08:52.535Z,1.52
2022-08-31T12:14:00.318Z,3.03
2022-08-31T12:19:36.582Z,1.58
2022-08-31T12:24:49.467Z,0.93
2022-08-31T12:29:52.297Z,1.35
2022-08-31T12:35:03.642Z,4.45
2022-08-31T12:45:11.033Z,2.80
2022-08-31T12:50:18.048Z,3.97
2022-08-31T12:55:24.393Z,1.70
2022-08-31T13:00:29.329Z,2.13
2022-08-31T13:05:33.378Z,2.60
2022-08-31T13:10:37.034Z,1.58
2022-08-31T13:15:42.732Z,2.20
2022-08-31T13:20:46.915Z,0.90
2022-08-31T13:25:59.011Z,0.93
2022-08-31T13:31:04.644Z,0.80
2022-08-31T13:36:09.915Z,1.70
2022-08-31T13:41:17.820Z,1.88
2022-08-31T13:46:37.661Z,2.45
2022-08-31T13:51:46.530Z,1.83
2022-08-31T13:56:55.036Z,4.47
2022-08-31T14:02:00.726Z,3.10
2022-08-31T14:07:03.972Z,1.67
2022-08-31T14:12:08.625Z,2.42
2022-08-31T14:17:16.533Z,3.78
2022-08-31T14:22:27.931Z,1.15
2022-08-31T14:27:31.113Z,1.85
2022-08-31T14:32:35.348Z,2.85
2022-08-31T14:37:38.222Z,2.30
2022-08-31T14:42:41.336Z,3.10
2022-08-31T14:47:48.121Z,3.33
2022-08-31T14:52:55.721Z,3.58
2022-08-31T14:58:01.786Z,6.65
2022-08-31T15:03:06.500Z,3.38
2022-08-31T15:08:09.635Z,1.98
2022-08-31T15:13:12.233Z,2.80
2022-08-31T15:18:16.836Z,1.83
2022-08-31T15:23:19.824Z,1.15
2022-08-31T15:28:22.390Z,3.63
2022-08-31T15:33:27.417Z,1.33
2022-08-31T15:38:29.918Z,1.40
2022-08-31T15:43:32.413Z,3.53
2022-08-31T15:48:43.050Z,2.50
2022-08-31T15:54:00.840Z,3.60
2022-08-31T15:59:10.774Z,3.05
2022-08-31T16:04:20.513Z,2.35
2022-08-31T16:09:23.112Z,4.45
2022-08-31T16:14:26.017Z,3.65
2022-08-31T16:19:35.771Z,3.17
2022-08-31T16:24:39.647Z,2.20
2022-08-31T16:29:42.214Z,2.67
2022-08-31T16:34:46.703Z,2.28
2022-08-31T16:39:49.172Z,5.47
2022-08-31T16:44:52.041Z,2.10
2022-08-31T16:49:56.033Z,2.33
2022-08-31T16:54:58.587Z,3.92
2022-08-31T17:00:03.105Z,5.20
2022-08-31T17:05:08.647Z,6.22
2022-08-31T17:10:11.512Z,2.50
2022-08-31T17:15:14.212Z,2.03
2022-08-31T17:20:19.523Z,4.60
2022-08-31T17:25:24.997Z,1.08
2022-08-31T17:30:27.825Z,3.85
2022-08-31T17:35:32.206Z,2.38
2022-08-31T17:40:34.850Z,2.78
2022-08-31T17:45:40.021Z,2.08
2022-08-31T17:50:44.392Z,5.47
2022-08-31T17:55:54.843Z,6.97
2022-08-31T18:00:59.730Z,4.43
2022-08-31T18:06:04.078Z,3.08
2022-08-31T18:11:07.679Z,5.75
2022-08-31T18:16:14.191Z,2.70
2022-08-31T18:21:20.018Z,2.67
2022-08-31T18:26:23.474Z,4.70
2022-08-31T18:31:33.356Z,4.97
2022-08-31T18:36:39.081Z,3.88
2022-08-31T18:42:00.700Z,4.85
2022-08-31T18:47:06.131Z,3.28
2022-08-31T18:52:16.320Z,4.20
2022-08-31T18:57:20.132Z,4.03
2022-08-31T19:02:23.132Z,2.50
2022-08-31T19:07:27.343Z,2.03
2022-08-31T19:12:29.952Z,3.20
2022-08-31T19:17:32.802Z,3.67
2022-08-31T19:22:36.885Z,3.05
2022-08-31T19:27:39.523Z,2.92
2022-08-31T19:32:42.265Z,3.28
2022-08-31T19:37:47.582Z,2.35
2022-08-31T19:48:12.767Z,2.35
2022-08-31T19:53:20.705Z,3.15
2022-08-31T19:58:25.806Z,3.65
2022-08-31T20:03:28.466Z,2.20
2022-08-31T20:08:32.516Z,5.30
2022-08-31T20:13:36.503Z,3.40
2022-08-31T20:18:40.449Z,2.38
2022-08-31T20:23:44.697Z,3.03
2022-08-31T20:28:47.376Z,3.65
2022-08-31T20:33:49.917Z,3.47
2022-08-31T20:38:57.225Z,2.70
2022-08-31T20:44:01.226Z,1.80
2022-08-31T20:49:22.430Z,2.75
2022-08-31T20:54:26.657Z,1.15
2022-08-31T20:59:29.187Z,3.08
2022-08-31T21:04:32.968Z,2.10
2022-08-31T21:09:36.997Z,1.00
2022-08-31T21:14:40.743Z,3.50
2022-08-31T21:19:43.733Z,1.77
2022-08-31T21:24:47.936Z,2.10
2022-08-31T21:29:51.604Z,3.47
2022-08-31T21:34:55.813Z,4.05
2022-08-31T21:40:00.547Z,1.83
2022-08-31T21:45:04.302Z,2.08
2022-08-31T21:50:07.737Z,1.60
2022-08-31T21:55:13.859Z,5.07
2022-08-31T22:00:18.438Z,3.13
2022-08-31T22:05:24.865Z,2.63
2022-08-31T22:10:30.709Z,5.43
2022-08-31T22:15:36.371Z,4.70
2022-08-31T22:20:40.590Z,3.20
2022-08-31T22:25:44.924Z,2.50
2022-08-31T22:30:47.830Z,2.33
2022-08-31T22:35:50.318Z,3.05
2022-08-31T22:40:54.951Z,3.47
2022-08-31T22:45:57.576Z,3.35
2022-08-31T22:51:02.770Z,3.58
2022-08-31T22:56:10.437Z,4.32
2022-08-31T23:01:16.917Z,1.95
2022-08-31T23:06:20.581Z,3.80
2022-08-31T23:11:25.447Z,2.55
2022-08-31T23:16:28.882Z,2.95
2022-08-31T23:21:34.160Z,2.65
2022-08-31T23:26:39.067Z,2.55
2022-08-31T23:31:41.718Z,3.22
2022-08-31T23:36:47.896Z,1.83
2022-08-31T23:41:53.245Z,2.25
2022-08-31T23:46:57.351Z,3.13
2022-08-31T23:52:00.081Z,2.05
2022-08-31T23:57:05.314Z,3.92
